sensor_id;sensor_type;location;lat;lon;timestamp;pressure;altitude;pressure_sealevel;temperature;humidity
7333;BME280;3707;43.618;25.342;2022-08-07T00:00:55;99771.66;;;26.60;100.00
7333;BME280;3707;43.618;25.342;2022-08-07T00:03:21;99795.25;;;26.82;100.00
7333;BME280;3707;43.618;25.342;2022-08-07T00:05:52;99804.22;;;26.96;100.00
7333;BME280;3707;43.618;25.342;2022-08-07T00:08:19;99773.78;;;26.69;100.00
7333;BME280;3707;43.618;25.342;2022-08-07T00:10:47;99795.38;;;26.96;100.00
7333;BME280;3707;43.618;25.342;2022-08-07T00:13:14;99794.06;;;26.87;100.00
7333;BME280;3707;43.618;25.342;2022-08-07T00:15:41;99804.84;;;26.69;100.00
7333;BME280;3707;43.618;25.342;2022-08-07T00:18:08;99799.63;;;26.67;100.00
7333;BME280;3707;43.618;25.342;2022-08-07T00:20:35;99806.06;;;26.63;100.00
7333;BME280;3707;43.618;25.342;2022-08-07T00:23:04;99800.22;;;26.72;100.00
7333;BME280;3707;43.618;25.342;2022-08-07T00:25:31;99792.25;;;26.72;100.00
7333;BME280;3707;43.618;25.342;2022-08-07T00:27:58;99810.84;;;26.72;100.00
7333;BME280;3707;43.618;25.342;2022-08-07T00:30:25;99804.19;;;26.81;100.00
7333;BME280;3707;43.618;25.342;2022-08-07T00:32:52;99808.63;;;26.80;100.00
7333;BME280;3707;43.618;25.342;2022-08-07T00:35:20;99807.78;;;26.80;100.00
7333;BME280;3707;43.618;25.342;2022-08-07T00:37:47;99801.38;;;26.84;100.00
7333;BME280;3707;43.618;25.342;2022-08-07T00:40:15;99805.03;;;26.81;100.00
7333;BME280;3707;43.618;25.342;2022-08-07T00:42:42;99804.91;;;26.84;100.00
7333;BME280;3707;43.618;25.342;2022-08-07T00:45:10;99806.91;;;26.79;100.00
7333;BME280;3707;43.618;25.342;2022-08-07T00:47:37;99806.28;;;26.91;100.00
7333;BME280;3707;43.618;25.342;2022-08-07T00:50:05;99804.03;;;26.99;98.87
7333;BME280;3707;43.618;25.342;2022-08-07T00:52:32;99795.19;;;26.83;99.60
7333;BME280;3707;43.618;25.342;2022-08-07T00:54:59;99787.34;;;26.49;100.00
7333;BME280;3707;43.618;25.342;2022-08-07T00:57:28;99769.91;;;26.43;100.00
7333;BME280;3707;43.618;25.342;2022-08-07T00:59:55;99800.31;;;26.55;100.00
7333;BME280;3707;43.618;25.342;2022-08-07T01:02:23;99789.34;;;26.61;99.38
7333;BME280;3707;43.618;25.342;2022-08-07T01:04:50;99795.78;;;26.57;97.89
7333;BME280;3707;43.618;25.342;2022-08-07T01:07:19;99800.81;;;26.46;97.00
7333;BME280;3707;43.618;25.342;2022-08-07T01:09:46;99812.91;;;26.51;97.37
7333;BME280;3707;43.618;25.342;2022-08-07T01:12:14;99813.19;;;26.62;98.01
7333;BME280;3707;43.618;25.342;2022-08-07T01:14:43;99812.75;;;26.70;97.00
7333;BME280;3707;43.618;25.342;2022-08-07T01:17:10;99809.34;;;26.68;96.52
7333;BME280;3707;43.618;25.342;2022-08-07T01:19:38;99817.91;;;26.73;96.29
7333;BME280;3707;43.618;25.342;2022-08-07T01:22:06;99810.28;;;26.83;95.19
7333;BME280;3707;43.618;25.342;2022-08-07T01:24:34;99806.28;;;26.91;93.73
7333;BME280;3707;43.618;25.342;2022-08-07T01:27:01;99815.63;;;26.83;92.26
7333;BME280;3707;43.618;25.342;2022-08-07T01:29:29;99821.50;;;26.72;93.27
7333;BME280;3707;43.618;25.342;2022-08-07T01:31:58;99808.47;;;26.68;93.86
7333;BME280;3707;43.618;25.342;2022-08-07T01:34:29;99821.69;;;26.69;94.87
7333;BME280;3707;43.618;25.342;2022-08-07T01:36:56;99809.66;;;26.62;95.33
7333;BME280;3707;43.618;25.342;2022-08-07T01:39:24;99784.63;;;26.50;93.77
7333;BME280;3707;43.618;25.342;2022-08-07T01:41:52;99826.06;;;26.70;92.66
7333;BME280;3707;43.618;25.342;2022-08-07T01:44:19;99824.75;;;26.61;93.22
7333;BME280;3707;43.618;25.342;2022-08-07T01:46:47;99819.53;;;26.60;92.07
7333;BME280;3707;43.618;25.342;2022-08-07T01:49:14;99822.38;;;26.57;91.02
7333;BME280;3707;43.618;25.342;2022-08-07T01:51:42;99811.72;;;26.57;89.59
7333;BME280;3707;43.618;25.342;2022-08-07T01:54:11;99820.13;;;26.49;89.03
7333;BME280;3707;43.618;25.342;2022-08-07T01:56:46;99822.84;;;26.48;89.96
7333;BME280;3707;43.618;25.342;2022-08-07T01:59:17;99804.13;;;26.34;90.72
7333;BME280;3707;43.618;25.342;2022-08-07T02:01:53;99815.28;;;26.40;89.13
7333;BME280;3707;43.618;25.342;2022-08-07T02:04:25;99802.41;;;26.33;89.17
7333;BME280;3707;43.618;25.342;2022-08-07T02:06:54;99815.38;;;26.39;90.15
7333;BME280;3707;43.618;25.342;2022-08-07T02:09:23;99822.56;;;26.37;90.14
7333;BME280;3707;43.618;25.342;2022-08-07T02:11:55;99825.00;;;26.41;89.63
7333;BME280;3707;43.618;25.342;2022-08-07T02:14:24;99814.59;;;26.37;90.26
7333;BME280;3707;43.618;25.342;2022-08-07T02:16:53;99819.22;;;26.33;90.37
7333;BME280;3707;43.618;25.342;2022-08-07T02:19:21;99793.00;;;26.10;90.74
7333;BME280;3707;43.618;25.342;2022-08-07T02:21:50;99820.59;;;26.25;90.90
7333;BME280;3707;43.618;25.342;2022-08-07T02:24:18;99828.06;;;26.17;92.06
7333;BME280;3707;43.618;25.342;2022-08-07T02:26:46;99815.50;;;26.03;92.42
7333;BME280;3707;43.618;25.342;2022-08-07T02:29:15;99844.66;;;26.04;91.18
7333;BME280;3707;43.618;25.342;2022-08-07T02:31:43;99840.69;;;25.96;92.91
7333;BME280;3707;43.618;25.342;2022-08-07T02:34:11;99825.69;;;25.78;93.18
7333;BME280;3707;43.618;25.342;2022-08-07T02:36:38;99848.50;;;25.82;92.93
7333;BME280;3707;43.618;25.342;2022-08-07T02:39:06;99848.09;;;25.72;94.33
7333;BME280;3707;43.618;25.342;2022-08-07T02:41:34;99825.66;;;25.43;97.98
7333;BME280;3707;43.618;25.342;2022-08-07T02:44:02;99829.66;;;25.69;96.20
7333;BME280;3707;43.618;25.342;2022-08-07T02:46:32;99840.59;;;25.80;96.26
7333;BME280;3707;43.618;25.342;2022-08-07T02:49:02;99823.25;;;25.73;95.51
7333;BME280;3707;43.618;25.342;2022-08-07T02:51:31;99846.94;;;25.78;95.06
7333;BME280;3707;43.618;25.342;2022-08-07T02:54:00;99816.00;;;25.59;95.36
7333;BME280;3707;43.618;25.342;2022-08-07T02:56:29;99844.72;;;25.69;96.01
7333;BME280;3707;43.618;25.342;2022-08-07T02:58:59;99844.13;;;25.63;95.87
7333;BME280;3707;43.618;25.342;2022-08-07T03:01:27;99845.28;;;25.58;97.34
7333;BME280;3707;43.618;25.342;2022-08-07T03:03:57;99830.47;;;25.54;97.83
7333;BME280;3707;43.618;25.342;2022-08-07T03:06:25;99850.91;;;25.52;98.81
7333;BME280;3707;43.618;25.342;2022-08-07T03:08:53;99851.25;;;25.44;100.00
7333;BME280;3707;43.618;25.342;2022-08-07T03:11:20;99854.91;;;25.60;98.46
7333;BME280;3707;43.618;25.342;2022-08-07T03:13:47;99856.75;;;25.58;98.17
7333;BME280;3707;43.618;25.342;2022-08-07T03:16:15;99855.22;;;25.72;96.28
7333;BME280;3707;43.618;25.342;2022-08-07T03:18:42;99849.03;;;25.54;96.31
7333;BME280;3707;43.618;25.342;2022-08-07T03:21:10;99860.75;;;25.67;94.64
7333;BME280;3707;43.618;25.342;2022-08-07T03:23:38;99869.97;;;25.60;95.57
7333;BME280;3707;43.618;25.342;2022-08-07T03:26:05;99865.81;;;25.54;95.14
7333;BME280;3707;43.618;25.342;2022-08-07T03:28:34;99833.63;;;25.43;94.34
7333;BME280;3707;43.618;25.342;2022-08-07T03:31:02;99861.53;;;25.52;95.89
7333;BME280;3707;43.618;25.342;2022-08-07T03:33:47;99872.63;;;25.60;96.72
7333;BME280;3707;43.618;25.342;2022-08-07T03:36:17;99852.63;;;25.53;96.11
7333;BME280;3707;43.618;25.342;2022-08-07T03:38:46;99867.13;;;25.46;96.85
7333;BME280;3707;43.618;25.342;2022-08-07T03:41:14;99872.41;;;25.46;97.75
7333;BME280;3707;43.618;25.342;2022-08-07T03:43:42;99862.81;;;25.43;97.50
7333;BME280;3707;43.618;25.342;2022-08-07T03:46:10;99877.72;;;25.46;97.09
7333;BME280;3707;43.618;25.342;2022-08-07T03:48:39;99874.91;;;25.49;96.50
7333;BME280;3707;43.618;25.342;2022-08-07T03:51:06;99869.66;;;25.47;96.63
7333;BME280;3707;43.618;25.342;2022-08-07T03:53:36;99872.00;;;25.55;96.25
7333;BME280;3707;43.618;25.342;2022-08-07T03:56:04;99876.59;;;25.51;95.14
7333;BME280;3707;43.618;25.342;2022-08-07T03:58:31;99879.25;;;25.69;95.35
7333;BME280;3707;43.618;25.342;2022-08-07T04:00:59;99884.66;;;26.01;92.18
7333;BME280;3707;43.618;25.342;2022-08-07T04:03:26;99884.13;;;26.12;90.75
7333;BME280;3707;43.618;25.342;2022-08-07T04:05:53;99885.38;;;26.39;89.27
7333;BME280;3707;43.618;25.342;2022-08-07T04:08:20;99885.75;;;26.97;85.39
7333;BME280;3707;43.618;25.342;2022-08-07T04:10:49;99887.50;;;27.45;81.01
7333;BME280;3707;43.618;25.342;2022-08-07T04:13:17;99845.75;;;26.99;82.28
7333;BME280;3707;43.618;25.342;2022-08-07T04:15:44;99884.53;;;27.66;79.87
7333;BME280;3707;43.618;25.342;2022-08-07T04:18:12;99898.09;;;27.77;78.67
7333;BME280;3707;43.618;25.342;2022-08-07T04:20:39;99893.81;;;27.74;77.73
7333;BME280;3707;43.618;25.342;2022-08-07T04:23:08;99898.47;;;27.71;78.12
7333;BME280;3707;43.618;25.342;2022-08-07T04:25:35;99896.16;;;27.94;76.84
7333;BME280;3707;43.618;25.342;2022-08-07T04:28:05;99908.47;;;28.27;76.07
7333;BME280;3707;43.618;25.342;2022-08-07T04:30:33;99914.81;;;28.68;73.15
7333;BME280;3707;43.618;25.342;2022-08-07T04:33:00;99897.25;;;28.36;74.28
7333;BME280;3707;43.618;25.342;2022-08-07T04:35:31;99903.75;;;28.88;71.50
7333;BME280;3707;43.618;25.342;2022-08-07T04:37:58;99906.81;;;28.82;72.01
7333;BME280;3707;43.618;25.342;2022-08-07T04:40:25;99907.19;;;28.90;70.86
7333;BME280;3707;43.618;25.342;2022-08-07T04:42:52;99911.06;;;29.54;68.21
7333;BME280;3707;43.618;25.342;2022-08-07T04:45:21;99910.59;;;30.01;64.92
7333;BME280;3707;43.618;25.342;2022-08-07T04:47:54;99916.63;;;29.51;67.59
7333;BME280;3707;43.618;25.342;2022-08-07T04:50:30;99902.78;;;29.85;65.45
7333;BME280;3707;43.618;25.342;2022-08-07T04:53:05;99910.09;;;29.42;67.14
7333;BME280;3707;43.618;25.342;2022-08-07T04:55:35;99891.81;;;28.66;70.55
7333;BME280;3707;43.618;25.342;2022-08-07T04:58:20;99925.28;;;29.14;69.10
7333;BME280;3707;43.618;25.342;2022-08-07T05:00:54;99924.31;;;29.29;70.09
7333;BME280;3707;43.618;25.342;2022-08-07T05:03:25;99920.44;;;30.00;68.08
7333;BME280;3707;43.618;25.342;2022-08-07T05:05:59;99911.91;;;29.95;66.05
7333;BME280;3707;43.618;25.342;2022-08-07T05:08:35;99927.97;;;30.08;65.03
7333;BME280;3707;43.618;25.342;2022-08-07T05:11:09;99929.44;;;29.99;66.73
7333;BME280;3707;43.618;25.342;2022-08-07T05:13:42;99931.78;;;30.81;64.23
7333;BME280;3707;43.618;25.342;2022-08-07T05:16:13;99941.66;;;31.42;60.30
7333;BME280;3707;43.618;25.342;2022-08-07T05:18:47;99938.34;;;31.39;59.66
7333;BME280;3707;43.618;25.342;2022-08-07T05:21:17;99937.41;;;31.87;57.82
7333;BME280;3707;43.618;25.342;2022-08-07T05:23:48;99939.78;;;32.27;56.46
7333;BME280;3707;43.618;25.342;2022-08-07T05:26:20;99956.41;;;32.08;55.88
7333;BME280;3707;43.618;25.342;2022-08-07T05:28:51;99959.59;;;32.48;55.30
7333;BME280;3707;43.618;25.342;2022-08-07T05:31:23;99962.97;;;32.28;56.16
7333;BME280;3707;43.618;25.342;2022-08-07T05:33:51;99960.91;;;31.24;60.21
7333;BME280;3707;43.618;25.342;2022-08-07T05:36:19;99948.53;;;30.33;64.33
7333;BME280;3707;43.618;25.342;2022-08-07T05:38:48;99963.38;;;30.51;66.99
7333;BME280;3707;43.618;25.342;2022-08-07T05:41:15;99954.25;;;30.01;67.08
7333;BME280;3707;43.618;25.342;2022-08-07T05:43:45;99962.41;;;30.00;68.98
7333;BME280;3707;43.618;25.342;2022-08-07T05:46:14;99943.22;;;29.67;71.14
7333;BME280;3707;43.618;25.342;2022-08-07T05:48:43;99952.06;;;29.40;73.28
7333;BME280;3707;43.618;25.342;2022-08-07T05:51:11;99945.75;;;29.68;73.80
7333;BME280;3707;43.618;25.342;2022-08-07T05:53:40;99953.34;;;29.07;75.23
7333;BME280;3707;43.618;25.342;2022-08-07T05:56:07;99954.16;;;29.49;74.02
7333;BME280;3707;43.618;25.342;2022-08-07T05:58:35;99965.34;;;28.85;77.19
7333;BME280;3707;43.618;25.342;2022-08-07T06:01:04;99958.38;;;28.69;80.87
7333;BME280;3707;43.618;25.342;2022-08-07T06:03:32;99956.31;;;28.44;81.79
7333;BME280;3707;43.618;25.342;2022-08-07T06:06:02;99968.97;;;28.84;78.66
7333;BME280;3707;43.618;25.342;2022-08-07T06:08:30;99969.41;;;28.63;81.18
7333;BME280;3707;43.618;25.342;2022-08-07T06:10:58;99975.91;;;28.29;84.18
7333;BME280;3707;43.618;25.342;2022-08-07T06:13:25;99958.72;;;28.19;83.67
7333;BME280;3707;43.618;25.342;2022-08-07T06:15:53;99969.94;;;28.10;84.94
7333;BME280;3707;43.618;25.342;2022-08-07T06:18:22;99968.03;;;28.12;86.41
7333;BME280;3707;43.618;25.342;2022-08-07T06:20:50;99968.75;;;28.29;85.01
7333;BME280;3707;43.618;25.342;2022-08-07T06:23:19;99973.78;;;28.49;84.21
7333;BME280;3707;43.618;25.342;2022-08-07T06:25:46;99959.63;;;28.77;82.62
7333;BME280;3707;43.618;25.342;2022-08-07T06:28:13;99971.44;;;28.87;82.88
7333;BME280;3707;43.618;25.342;2022-08-07T06:30:40;99921.22;;;28.22;82.80
7333;BME280;3707;43.618;25.342;2022-08-07T06:33:07;99979.84;;;28.81;82.45
7333;BME280;3707;43.618;25.342;2022-08-07T06:35:35;99967.22;;;29.26;82.52
7333;BME280;3707;43.618;25.342;2022-08-07T06:38:02;99970.78;;;29.26;80.12
7333;BME280;3707;43.618;25.342;2022-08-07T06:40:36;99974.69;;;29.07;79.81
7333;BME280;3707;43.618;25.342;2022-08-07T06:43:05;99979.06;;;28.93;81.43
7333;BME280;3707;43.618;25.342;2022-08-07T06:45:34;99970.88;;;28.82;81.69
7333;BME280;3707;43.618;25.342;2022-08-07T06:48:01;99974.03;;;29.03;80.29
7333;BME280;3707;43.618;25.342;2022-08-07T06:50:32;99972.75;;;29.23;79.75
7333;BME280;3707;43.618;25.342;2022-08-07T06:53:00;99980.63;;;29.67;78.12
7333;BME280;3707;43.618;25.342;2022-08-07T06:55:31;99935.22;;;29.79;77.61
7333;BME280;3707;43.618;25.342;2022-08-07T06:58:00;99983.59;;;30.03;74.20
7333;BME280;3707;43.618;25.342;2022-08-07T07:00:31;99966.75;;;29.88;74.06
7333;BME280;3707;43.618;25.342;2022-08-07T07:03:00;99976.81;;;29.97;74.95
7333;BME280;3707;43.618;25.342;2022-08-07T07:05:27;99985.94;;;30.08;74.91
7333;BME280;3707;43.618;25.342;2022-08-07T07:07:55;99914.34;;;29.72;73.45
7333;BME280;3707;43.618;25.342;2022-08-07T07:10:27;99988.38;;;30.25;73.20
7333;BME280;3707;43.618;25.342;2022-08-07T07:13:00;99984.25;;;30.19;74.42
7333;BME280;3707;43.618;25.342;2022-08-07T07:15:29;99988.00;;;29.90;73.44
7333;BME280;3707;43.618;25.342;2022-08-07T07:18:01;99987.66;;;30.09;75.27
7333;BME280;3707;43.618;25.342;2022-08-07T07:20:33;99983.75;;;29.87;75.09
7333;BME280;3707;43.618;25.342;2022-08-07T07:23:01;99991.34;;;30.33;73.04
7333;BME280;3707;43.618;25.342;2022-08-07T07:25:29;99986.50;;;30.52;71.72
7333;BME280;3707;43.618;25.342;2022-08-07T07:28:02;99979.28;;;30.40;72.17
7333;BME280;3707;43.618;25.342;2022-08-07T07:30:35;99988.53;;;30.86;71.25
7333;BME280;3707;43.618;25.342;2022-08-07T07:33:05;99980.97;;;31.06;69.88
7333;BME280;3707;43.618;25.342;2022-08-07T07:35:32;99982.44;;;30.84;67.30
7333;BME280;3707;43.618;25.342;2022-08-07T07:38:01;99982.69;;;31.07;70.27
7333;BME280;3707;43.618;25.342;2022-08-07T07:40:30;99985.03;;;30.98;67.50
7333;BME280;3707;43.618;25.342;2022-08-07T07:42:59;99999.81;;;31.17;67.86
7333;BME280;3707;43.618;25.342;2022-08-07T07:45:29;99998.72;;;31.19;65.78
7333;BME280;3707;43.618;25.342;2022-08-07T07:47:57;99927.94;;;30.73;66.70
7333;BME280;3707;43.618;25.342;2022-08-07T07:50:27;99981.34;;;31.37;64.38
7333;BME280;3707;43.618;25.342;2022-08-07T07:52:55;99987.22;;;31.42;66.66
7333;BME280;3707;43.618;25.342;2022-08-07T07:55:24;99966.47;;;31.21;63.44
7333;BME280;3707;43.618;25.342;2022-08-07T07:57:54;99988.56;;;31.61;64.00
7333;BME280;3707;43.618;25.342;2022-08-07T08:00:24;99991.53;;;31.81;62.40
7333;BME280;3707;43.618;25.342;2022-08-07T08:02:56;99979.84;;;31.93;62.35
7333;BME280;3707;43.618;25.342;2022-08-07T08:05:23;99982.91;;;32.13;60.68
7333;BME280;3707;43.618;25.342;2022-08-07T08:07:50;99971.66;;;32.08;60.57
7333;BME280;3707;43.618;25.342;2022-08-07T08:10:18;99979.31;;;31.77;59.51
7333;BME280;3707;43.618;25.342;2022-08-07T08:12:48;99970.59;;;32.10;59.61
7333;BME280;3707;43.618;25.342;2022-08-07T08:15:15;99983.78;;;32.01;59.57
7333;BME280;3707;43.618;25.342;2022-08-07T08:17:44;99981.94;;;32.14;62.34
7333;BME280;3707;43.618;25.342;2022-08-07T08:20:13;99985.97;;;32.19;59.66
7333;BME280;3707;43.618;25.342;2022-08-07T08:22:43;99986.06;;;32.07;61.01
7333;BME280;3707;43.618;25.342;2022-08-07T08:25:31;99987.41;;;31.88;60.43
7333;BME280;3707;43.618;25.342;2022-08-07T08:28:20;99984.66;;;32.01;59.93
7333;BME280;3707;43.618;25.342;2022-08-07T08:30:48;99987.22;;;32.26;61.15
7333;BME280;3707;43.618;25.342;2022-08-07T08:33:22;99992.28;;;32.42;58.44
7333;BME280;3707;43.618;25.342;2022-08-07T08:35:51;99993.13;;;32.77;56.56
7333;BME280;3707;43.618;25.342;2022-08-07T08:38:23;99977.91;;;32.89;56.02
7333;BME280;3707;43.618;25.342;2022-08-07T08:40:55;99992.44;;;33.20;55.62
7333;BME280;3707;43.618;25.342;2022-08-07T08:43:32;99973.13;;;33.15;56.27
7333;BME280;3707;43.618;25.342;2022-08-07T08:46:05;99986.66;;;33.47;55.02
7333;BME280;3707;43.618;25.342;2022-08-07T08:48:41;99988.25;;;33.71;52.74
7333;BME280;3707;43.618;25.342;2022-08-07T08:51:15;99984.22;;;33.77;51.85
7333;BME280;3707;43.618;25.342;2022-08-07T08:53:50;99978.22;;;33.73;52.88
7333;BME280;3707;43.618;25.342;2022-08-07T08:56:23;99982.66;;;33.63;52.02
7333;BME280;3707;43.618;25.342;2022-08-07T08:58:55;99981.91;;;33.06;53.72
7333;BME280;3707;43.618;25.342;2022-08-07T09:01:30;99991.50;;;33.21;53.47
7333;BME280;3707;43.618;25.342;2022-08-07T09:04:07;99981.44;;;33.12;51.42
7333;BME280;3707;43.618;25.342;2022-08-07T09:06:47;99977.28;;;33.52;49.78
7333;BME280;3707;43.618;25.342;2022-08-07T09:09:30;99967.72;;;34.02;49.91
7333;BME280;3707;43.618;25.342;2022-08-07T09:12:07;99951.50;;;33.93;48.35
7333;BME280;3707;43.618;25.342;2022-08-07T09:14:39;99974.41;;;34.08;48.51
7333;BME280;3707;43.618;25.342;2022-08-07T09:17:20;99950.06;;;33.88;48.37
7333;BME280;3707;43.618;25.342;2022-08-07T09:19:54;99968.44;;;33.61;47.80
7333;BME280;3707;43.618;25.342;2022-08-07T09:22:37;99957.16;;;33.78;47.42
7333;BME280;3707;43.618;25.342;2022-08-07T09:25:08;99971.91;;;33.63;47.92
7333;BME280;3707;43.618;25.342;2022-08-07T09:27:43;99962.81;;;33.64;48.20
7333;BME280;3707;43.618;25.342;2022-08-07T09:30:12;99956.09;;;33.70;48.95
7333;BME280;3707;43.618;25.342;2022-08-07T09:32:57;99958.03;;;33.79;47.65
7333;BME280;3707;43.618;25.342;2022-08-07T09:35:37;99938.66;;;33.53;48.36
7333;BME280;3707;43.618;25.342;2022-08-07T09:38:12;99950.75;;;33.48;48.68
7333;BME280;3707;43.618;25.342;2022-08-07T09:40:53;99956.50;;;33.10;49.57
7333;BME280;3707;43.618;25.342;2022-08-07T09:43:30;99963.59;;;32.77;51.71
7333;BME280;3707;43.618;25.342;2022-08-07T09:46:07;99956.56;;;32.18;53.84
7333;BME280;3707;43.618;25.342;2022-08-07T09:48:46;99956.00;;;32.02;54.03
7333;BME280;3707;43.618;25.342;2022-08-07T09:51:28;99950.09;;;31.85;57.41
7333;BME280;3707;43.618;25.342;2022-08-07T09:53:59;99942.06;;;31.96;71.10
7333;BME280;3707;43.618;25.342;2022-08-07T09:56:54;99948.38;;;31.48;94.35
7333;BME280;3707;43.618;25.342;2022-08-07T09:59:35;99945.31;;;31.29;100.00
7333;BME280;3707;43.618;25.342;2022-08-07T10:02:24;99931.03;;;31.41;100.00
7333;BME280;3707;43.618;25.342;2022-08-07T10:05:25;99936.94;;;31.46;100.00
7333;BME280;3707;43.618;25.342;2022-08-07T10:08:12;99927.69;;;31.98;92.77
7333;BME280;3707;43.618;25.342;2022-08-07T10:10:47;99920.97;;;32.16;100.00
7333;BME280;3707;43.618;25.342;2022-08-07T10:13:39;99932.19;;;32.67;100.00
7333;BME280;3707;43.618;25.342;2022-08-07T10:16:20;99908.38;;;32.62;100.00
7333;BME280;3707;43.618;25.342;2022-08-07T10:19:13;99935.28;;;32.96;96.45
7333;BME280;3707;43.618;25.342;2022-08-07T10:21:52;99925.97;;;33.33;100.00
7333;BME280;3707;43.618;25.342;2022-08-07T10:24:34;99929.84;;;33.51;98.15
7333;BME280;3707;43.618;25.342;2022-08-07T10:27:24;99916.00;;;33.56;84.50
7333;BME280;3707;43.618;25.342;2022-08-07T10:30:07;99929.06;;;33.71;75.31
7333;BME280;3707;43.618;25.342;2022-08-07T10:32:53;99924.22;;;33.86;86.57
7333;BME280;3707;43.618;25.342;2022-08-07T10:35:27;99931.53;;;33.74;87.47
7333;BME280;3707;43.618;25.342;2022-08-07T10:38:05;99912.56;;;33.54;86.05
7333;BME280;3707;43.618;25.342;2022-08-07T10:40:44;99928.09;;;33.61;89.97
7333;BME280;3707;43.618;25.342;2022-08-07T10:43:16;99905.88;;;33.48;87.73
7333;BME280;3707;43.618;25.342;2022-08-07T10:45:48;99933.06;;;33.34;90.62
7333;BME280;3707;43.618;25.342;2022-08-07T10:48:29;99915.72;;;33.05;90.27
7333;BME280;3707;43.618;25.342;2022-08-07T10:51:04;99920.38;;;32.80;88.53
7333;BME280;3707;43.618;25.342;2022-08-07T10:53:38;99936.66;;;32.44;74.98
7333;BME280;3707;43.618;25.342;2022-08-07T10:56:13;99937.63;;;32.54;86.28
7333;BME280;3707;43.618;25.342;2022-08-07T10:58:49;99922.59;;;31.34;71.03
7333;BME280;3707;43.618;25.342;2022-08-07T11:01:30;99938.97;;;31.06;80.22
7333;BME280;3707;43.618;25.342;2022-08-07T11:04:10;99945.50;;;30.64;84.86
7333;BME280;3707;43.618;25.342;2022-08-07T11:06:48;99945.19;;;30.81;85.87
7333;BME280;3707;43.618;25.342;2022-08-07T11:09:19;99937.47;;;30.77;82.13
7333;BME280;3707;43.618;25.342;2022-08-07T11:12:05;99922.19;;;31.28;84.58
7333;BME280;3707;43.618;25.342;2022-08-07T11:14:39;99928.53;;;31.63;86.75
7333;BME280;3707;43.618;25.342;2022-08-07T11:17:13;99933.28;;;31.94;77.93
7333;BME280;3707;43.618;25.342;2022-08-07T11:19:46;99924.28;;;32.30;78.80
7333;BME280;3707;43.618;25.342;2022-08-07T11:22:20;99920.09;;;32.61;68.44
7333;BME280;3707;43.618;25.342;2022-08-07T11:24:58;99909.63;;;33.03;72.30
7333;BME280;3707;43.618;25.342;2022-08-07T11:27:32;99914.97;;;33.25;73.02
7333;BME280;3707;43.618;25.342;2022-08-07T11:30:05;99878.34;;;32.79;61.92
7333;BME280;3707;43.618;25.342;2022-08-07T11:32:36;99886.03;;;33.06;59.45
7333;BME280;3707;43.618;25.342;2022-08-07T11:35:07;99901.94;;;33.74;58.95
7333;BME280;3707;43.618;25.342;2022-08-07T11:37:55;99904.75;;;33.94;58.73
7333;BME280;3707;43.618;25.342;2022-08-07T11:40:32;99904.06;;;34.74;53.91
7333;BME280;3707;43.618;25.342;2022-08-07T11:43:12;99898.34;;;34.68;48.84
7333;BME280;3707;43.618;25.342;2022-08-07T11:49:08;99887.38;;;35.30;46.54
7333;BME280;3707;43.618;25.342;2022-08-07T11:51:47;99891.63;;;35.23;45.42
7333;BME280;3707;43.618;25.342;2022-08-07T11:54:34;99880.19;;;35.00;49.09
7333;BME280;3707;43.618;25.342;2022-08-07T11:57:14;99883.72;;;34.19;49.36
7333;BME280;3707;43.618;25.342;2022-08-07T12:00:08;99892.88;;;34.58;49.27
7333;BME280;3707;43.618;25.342;2022-08-07T12:02:56;99886.81;;;34.15;49.83
7333;BME280;3707;43.618;25.342;2022-08-07T12:05:29;99884.44;;;34.21;48.51
7333;BME280;3707;43.618;25.342;2022-08-07T12:08:02;99810.16;;;33.57;48.43
7333;BME280;3707;43.618;25.342;2022-08-07T12:10:37;99890.28;;;33.09;48.48
7333;BME280;3707;43.618;25.342;2022-08-07T12:13:09;99876.41;;;32.92;48.88
7333;BME280;3707;43.618;25.342;2022-08-07T12:15:41;99871.50;;;32.98;49.28
7333;BME280;3707;43.618;25.342;2022-08-07T12:18:14;99858.69;;;33.12;47.37
7333;BME280;3707;43.618;25.342;2022-08-07T12:20:51;99849.09;;;33.42;45.59
7333;BME280;3707;43.618;25.342;2022-08-07T12:23:33;99870.69;;;34.04;44.00
7333;BME280;3707;43.618;25.342;2022-08-07T12:26:10;99860.72;;;34.36;42.88
7333;BME280;3707;43.618;25.342;2022-08-07T12:28:41;99858.31;;;34.94;43.18
7333;BME280;3707;43.618;25.342;2022-08-07T12:31:18;99853.06;;;35.42;43.10
7333;BME280;3707;43.618;25.342;2022-08-07T12:33:50;99836.06;;;35.11;42.21
7333;BME280;3707;43.618;25.342;2022-08-07T12:36:18;99839.69;;;34.51;46.14
7333;BME280;3707;43.618;25.342;2022-08-07T12:38:47;99851.00;;;33.51;46.64
7333;BME280;3707;43.618;25.342;2022-08-07T12:41:15;99812.91;;;32.91;48.93
7333;BME280;3707;43.618;25.342;2022-08-07T12:43:44;99856.00;;;32.90;47.99
7333;BME280;3707;43.618;25.342;2022-08-07T12:46:23;99848.56;;;32.82;49.11
7333;BME280;3707;43.618;25.342;2022-08-07T12:48:57;99842.97;;;32.63;49.42
7333;BME280;3707;43.618;25.342;2022-08-07T12:51:32;99843.19;;;32.71;48.07
7333;BME280;3707;43.618;25.342;2022-08-07T12:54:07;99841.34;;;32.83;46.35
7333;BME280;3707;43.618;25.342;2022-08-07T12:56:42;99838.06;;;32.68;45.68
7333;BME280;3707;43.618;25.342;2022-08-07T12:59:16;99832.41;;;32.93;46.10
7333;BME280;3707;43.618;25.342;2022-08-07T13:01:54;99823.38;;;32.95;43.92
7333;BME280;3707;43.618;25.342;2022-08-07T13:04:32;99779.09;;;32.89;43.76
7333;BME280;3707;43.618;25.342;2022-08-07T13:07:31;99815.03;;;33.63;43.84
7333;BME280;3707;43.618;25.342;2022-08-07T13:10:24;99804.75;;;33.88;42.68
7333;BME280;3707;43.618;25.342;2022-08-07T13:13:13;99816.03;;;34.24;43.89
7333;BME280;3707;43.618;25.342;2022-08-07T13:15:49;99812.06;;;34.07;42.64
7333;BME280;3707;43.618;25.342;2022-08-07T13:18:26;99816.97;;;33.93;41.12
7333;BME280;3707;43.618;25.342;2022-08-07T13:21:00;99816.22;;;34.11;40.75
7333;BME280;3707;43.618;25.342;2022-08-07T13:23:33;99819.72;;;34.23;40.75
7333;BME280;3707;43.618;25.342;2022-08-07T13:26:09;99814.75;;;34.07;40.44
7333;BME280;3707;43.618;25.342;2022-08-07T13:28:44;99806.66;;;34.18;40.58
7333;BME280;3707;43.618;25.342;2022-08-07T13:31:18;99807.16;;;34.12;40.65
7333;BME280;3707;43.618;25.342;2022-08-07T13:33:51;99784.13;;;33.99;39.51
7333;BME280;3707;43.618;25.342;2022-08-07T13:36:23;99734.28;;;33.53;39.61
7333;BME280;3707;43.618;25.342;2022-08-07T13:38:57;99801.72;;;34.03;37.89